createdAt,value
2022-08-14T00:00:57.161Z,21.42
2022-08-14T00:04:02.991Z,21.46
2022-08-14T00:07:28.924Z,21.14
2022-08-14T00:10:51.726Z,20.97
2022-08-14T00:14:01.461Z,21.21
2022-08-14T00:17:08.225Z,21.09
2022-08-14T00:20:23.413Z,20.76
2022-08-14T00:23:30.161Z,20.85
2022-08-14T00:26:36.102Z,20.85
2022-08-14T00:29:43.000Z,20.92
2022-08-14T00:32:51.725Z,20.70
2022-08-14T00:36:36.591Z,20.75
2022-08-14T00:39:27.829Z,20.70
2022-08-14T00:42:55.348Z,20.72
2022-08-14T00:46:33.389Z,20.79
2022-08-14T00:49:42.655Z,20.77
2022-08-14T00:52:52.963Z,20.58
2022-08-14T00:56:01.082Z,20.46
2022-08-14T00:59:13.009Z,20.68
2022-08-14T01:02:25.215Z,20.48
2022-08-14T01:05:41.804Z,20.47
2022-08-14T01:08:59.161Z,20.54
2022-08-14T01:12:06.611Z,20.63
2022-08-14T01:15:14.741Z,20.51
2022-08-14T01:18:41.454Z,20.52
2022-08-14T01:21:52.974Z,20.42
2022-08-14T01:24:59.418Z,20.07
2022-08-14T01:28:06.046Z,20.37
2022-08-14T01:31:19.705Z,20.34
2022-08-14T01:35:20.042Z,20.13
2022-08-14T01:37:54.871Z,19.81
2022-08-14T01:41:11.995Z,20.14
2022-08-14T01:44:34.600Z,20.24
2022-08-14T01:47:40.596Z,20.16
2022-08-14T01:50:46.259Z,20.33
2022-08-14T01:53:55.716Z,20.13
2022-08-14T01:57:02.170Z,20.23
2022-08-14T02:00:19.366Z,20.38
2022-08-14T02:03:31.172Z,20.18
2022-08-14T02:06:38.581Z,20.02
2022-08-14T02:09:44.872Z,20.13
2022-08-14T02:13:08.595Z,20.10
2022-08-14T02:16:22.015Z,20.13
2022-08-14T02:19:32.344Z,20.15
2022-08-14T02:22:48.233Z,20.05
2022-08-14T02:25:55.144Z,20.10
2022-08-14T02:29:11.996Z,20.08
2022-08-14T02:32:30.053Z,19.75
2022-08-14T02:35:43.879Z,20.07
2022-08-14T02:38:58.807Z,19.86
2022-08-14T02:42:05.946Z,19.85
2022-08-14T02:45:11.721Z,19.85
2022-08-14T02:49:05.518Z,19.86
2022-08-14T02:51:42.661Z,19.87
2022-08-14T02:54:48.212Z,19.82
2022-08-14T02:58:03.107Z,19.88
2022-08-14T03:01:10.413Z,20.02
2022-08-14T03:04:17.578Z,19.88
2022-08-14T03:07:26.313Z,19.91
2022-08-14T03:10:33.520Z,19.83
2022-08-14T03:13:45.289Z,19.74
2022-08-14T03:16:51.388Z,19.59
2022-08-14T03:19:56.864Z,19.60
2022-08-14T03:23:05.409Z,19.85
2022-08-14T03:26:18.399Z,19.85
2022-08-14T03:29:36.776Z,19.77
2022-08-14T03:32:46.696Z,19.69
2022-08-14T03:36:05.727Z,19.70
2022-08-14T03:39:24.335Z,19.46
2022-08-14T03:42:36.594Z,19.37
2022-08-14T03:45:47.968Z,19.26
2022-08-14T03:48:58.546Z,19.43
2022-08-14T03:52:17.709Z,19.46
2022-08-14T03:55:31.680Z,19.25
2022-08-14T03:58:40.756Z,19.26
2022-08-14T04:01:58.060Z,19.26
2022-08-14T04:05:12.997Z,19.22
2022-08-14T04:08:29.112Z,19.24
2022-08-14T04:11:38.477Z,19.28
2022-08-14T04:14:44.126Z,19.40
2022-08-14T04:17:51.675Z,19.57
2022-08-14T04:21:03.977Z,19.57
2022-08-14T04:24:09.739Z,19.49
2022-08-14T04:27:16.667Z,19.39
2022-08-14T04:30:30.949Z,19.47
2022-08-14T04:33:39.258Z,19.55
2022-08-14T04:37:03.621Z,19.55
2022-08-14T04:40:35.352Z,19.59
2022-08-14T04:43:46.547Z,19.66
2022-08-14T04:47:10.673Z,19.61
2022-08-14T04:50:15.788Z,19.63
2022-08-14T04:53:35.299Z,19.69
2022-08-14T04:56:41.516Z,19.77
2022-08-14T04:59:47.989Z,19.83
2022-08-14T05:02:53.251Z,19.87
2022-08-14T05:06:01.985Z,19.85
2022-08-14T05:09:10.519Z,19.94
2022-08-14T05:13:13.123Z,20.15
2022-08-14T05:15:48.034Z,20.22
2022-08-14T05:19:17.714Z,20.19
2022-08-14T05:22:20.328Z,20.18
2022-08-14T05:25:25.889Z,20.11
2022-08-14T05:28:36.530Z,20.21
2022-08-14T05:31:42.151Z,20.29
2022-08-14T05:34:48.180Z,20.31
2022-08-14T05:37:54.157Z,20.44
2022-08-14T05:41:08.729Z,20.45
2022-08-14T05:44:14.529Z,20.55
2022-08-14T05:47:20.338Z,20.52
2022-08-14T05:50:26.417Z,20.75
2022-08-14T05:53:36.104Z,20.80
2022-08-14T05:56:47.538Z,20.89
2022-08-14T05:59:54.107Z,20.79
2022-08-14T06:03:04.195Z,20.97
2022-08-14T06:06:13.134Z,20.83
2022-08-14T06:09:18.455Z,20.85
2022-08-14T06:12:55.086Z,20.88
2022-08-14T06:15:51.255Z,20.95
2022-08-14T06:18:59.549Z,21.15
2022-08-14T06:22:05.816Z,21.06
2022-08-14T06:25:16.096Z,21.24
2022-08-14T06:28:27.231Z,21.41
2022-08-14T06:31:35.653Z,21.36
2022-08-14T06:35:03.796Z,21.60
2022-08-14T06:38:07.943Z,21.66
2022-08-14T06:41:13.611Z,21.57
2022-08-14T06:44:30.261Z,22.01
2022-08-14T06:47:43.933Z,22.12
2022-08-14T06:50:51.139Z,22.17
2022-08-14T06:53:57.361Z,22.59
2022-08-14T06:57:03.908Z,22.38
2022-08-14T07:00:22.249Z,22.53
2022-08-14T07:03:52.426Z,22.44
2022-08-14T07:06:59.371Z,22.51
2022-08-14T07:10:06.627Z,23.03
2022-08-14T07:13:14.535Z,23.13
2022-08-14T07:16:19.913Z,22.95
2022-08-14T07:19:25.021Z,22.85
2022-08-14T07:22:32.948Z,23.21
2022-08-14T07:25:58.189Z,22.87
2022-08-14T07:29:03.876Z,23.20
2022-08-14T07:32:11.848Z,23.32
2022-08-14T07:35:30.417Z,23.49
2022-08-14T07:38:52.337Z,23.37
2022-08-14T07:41:58.505Z,23.67
2022-08-14T07:45:04.358Z,23.97
2022-08-14T07:48:15.057Z,23.85
2022-08-14T07:51:21.807Z,23.81
2022-08-14T07:54:30.058Z,23.99
2022-08-14T07:57:36.689Z,24.21
2022-08-14T08:00:43.951Z,24.03
2022-08-14T08:04:00.328Z,24.40
2022-08-14T08:07:07.434Z,24.60
2022-08-14T08:11:02.224Z,24.49
2022-08-14T08:14:03.822Z,24.79
2022-08-14T08:17:10.106Z,24.77
2022-08-14T08:20:27.111Z,24.82
2022-08-14T08:23:40.591Z,24.68
2022-08-14T08:26:50.813Z,24.83
2022-08-14T08:30:10.292Z,24.98
2022-08-14T08:33:19.834Z,25.16
2022-08-14T08:36:24.980Z,25.38
2022-08-14T08:40:02.297Z,25.33
2022-08-14T08:43:21.636Z,25.47
2022-08-14T08:46:27.450Z,25.55
2022-08-14T08:49:52.693Z,25.69
2022-08-14T08:53:11.198Z,25.92
2022-08-14T08:56:30.517Z,25.90
2022-08-14T08:59:42.714Z,25.90
2022-08-14T09:03:04.873Z,26.10
2022-08-14T09:06:56.974Z,25.97
2022-08-14T09:09:54.707Z,26.02
2022-08-14T09:13:05.202Z,26.14
2022-08-14T09:16:19.081Z,26.26
2022-08-14T09:19:27.741Z,26.29
2022-08-14T09:22:47.286Z,26.42
2022-08-14T09:26:00.422Z,26.42
2022-08-14T09:29:06.874Z,26.29
2022-08-14T09:32:58.633Z,26.61
2022-08-14T09:36:33.456Z,26.50
2022-08-14T09:39:48.633Z,26.86
2022-08-14T09:43:22.306Z,26.82
2022-08-14T09:46:28.184Z,27.01
2022-08-14T09:49:40.917Z,26.91
2022-08-14T09:52:55.042Z,26.93
2022-08-14T09:56:04.787Z,27.04
2022-08-14T09:59:20.985Z,27.05
2022-08-14T10:02:43.720Z,27.27
2022-08-14T10:05:52.144Z,27.31
2022-08-14T10:09:12.015Z,27.54
2022-08-14T10:12:28.824Z,27.37
2022-08-14T10:15:46.090Z,27.63
2022-08-14T10:19:09.217Z,27.78
2022-08-14T10:23:15.054Z,27.60
2022-08-14T10:25:54.347Z,27.70
2022-08-14T10:29:19.679Z,27.78
2022-08-14T10:32:40.053Z,27.86
2022-08-14T10:35:48.491Z,27.83
2022-08-14T10:38:58.604Z,27.91
2022-08-14T10:42:16.651Z,28.08
2022-08-14T10:45:35.723Z,27.84
2022-08-14T10:49:00.473Z,28.11
2022-08-14T10:52:11.355Z,28.30
2022-08-14T10:55:20.989Z,28.29
2022-08-14T10:58:34.407Z,28.25
2022-08-14T11:01:42.064Z,27.96
2022-08-14T11:05:16.020Z,28.18
2022-08-14T11:08:31.883Z,28.49
2022-08-14T11:11:44.058Z,28.71
2022-08-14T11:15:02.168Z,28.57
2022-08-14T11:18:11.928Z,28.87
2022-08-14T11:21:30.371Z,28.88
2022-08-14T11:24:54.153Z,28.96
2022-08-14T11:28:02.381Z,29.24
2022-08-14T11:31:10.700Z,28.94
2022-08-14T11:34:32.508Z,29.13
2022-08-14T11:37:58.454Z,29.05
2022-08-14T11:41:06.424Z,28.91
2022-08-14T11:44:44.981Z,28.78
2022-08-14T11:47:43.984Z,29.05
2022-08-14T11:51:14.543Z,29.35
2022-08-14T11:54:34.784Z,29.43
2022-08-14T11:57:44.023Z,29.53
2022-08-14T12:01:09.712Z,29.53
2022-08-14T12:04:32.414Z,29.51
2022-08-14T12:07:49.763Z,29.69
2022-08-14T12:10:58.881Z,29.80
2022-08-14T12:14:29.388Z,29.78
2022-08-14T12:17:55.926Z,29.48
2022-08-14T12:21:19.371Z,29.63
2022-08-14T12:24:36.353Z,29.66
2022-08-14T12:27:53.552Z,29.68
2022-08-14T12:31:00.310Z,29.76
2022-08-14T12:34:10.356Z,29.62
2022-08-14T12:37:16.495Z,29.62
2022-08-14T12:40:25.340Z,29.73
2022-08-14T12:43:31.171Z,29.69
2022-08-14T12:46:46.826Z,29.70
2022-08-14T12:49:57.834Z,29.77
2022-08-14T12:53:14.614Z,29.77
2022-08-14T12:56:33.140Z,29.77
2022-08-14T12:59:42.641Z,29.59
2022-08-14T13:02:55.328Z,29.45
2022-08-14T13:06:01.827Z,29.57
2022-08-14T13:09:11.107Z,29.23
2022-08-14T13:12:33.186Z,29.33
2022-08-14T13:15:45.955Z,29.36
2022-08-14T13:18:57.348Z,29.26
2022-08-14T13:22:10.056Z,29.26
2022-08-14T13:25:18.785Z,29.24
2022-08-14T13:28:32.575Z,29.18
2022-08-14T13:31:44.570Z,29.33
2022-08-14T13:34:54.228Z,29.47
2022-08-14T13:37:59.805Z,29.38
2022-08-14T13:41:06.494Z,29.30
2022-08-14T13:44:13.880Z,29.28
2022-08-14T13:47:21.495Z,29.37
2022-08-14T13:50:26.854Z,29.35
2022-08-14T13:54:06.989Z,29.66
2022-08-14T13:57:13.150Z,29.90
2022-08-14T14:00:21.867Z,29.89
2022-08-14T14:03:45.294Z,29.92
2022-08-14T14:06:52.428Z,30.25
2022-08-14T14:09:58.611Z,30.33
2022-08-14T14:13:05.507Z,30.14
2022-08-14T14:16:12.029Z,30.35
2022-08-14T14:19:23.685Z,30.40
2022-08-14T14:22:35.694Z,30.43
2022-08-14T14:25:57.583Z,30.24
2022-08-14T14:29:07.716Z,30.38
2022-08-14T14:32:21.382Z,30.41
2022-08-14T14:35:32.838Z,30.62
2022-08-14T14:38:44.667Z,30.67
2022-08-14T14:41:56.383Z,30.83
2022-08-14T14:45:15.583Z,30.48
2022-08-14T14:48:27.127Z,30.84
2022-08-14T14:51:34.633Z,30.90
2022-08-14T14:54:40.513Z,31.03
2022-08-14T14:57:51.873Z,31.06
2022-08-14T15:01:03.888Z,31.08
2022-08-14T15:04:20.778Z,30.59
2022-08-14T15:07:27.465Z,30.75
2022-08-14T15:10:39.852Z,30.93
2022-08-14T15:13:53.234Z,30.63
2022-08-14T15:17:00.453Z,30.16
2022-08-14T15:20:17.142Z,30.53
2022-08-14T15:23:44.270Z,30.76
2022-08-14T15:26:50.542Z,31.04
2022-08-14T15:29:56.423Z,31.09
2022-08-14T15:33:01.959Z,30.62
2022-08-14T15:36:16.682Z,30.38
2022-08-14T15:39:38.060Z,30.57
2022-08-14T15:42:43.722Z,30.82
2022-08-14T15:45:48.727Z,30.99
2022-08-14T15:48:55.024Z,30.94
2022-08-14T15:52:01.892Z,30.83
2022-08-14T15:55:14.580Z,30.85
2022-08-14T15:58:25.053Z,30.71
2022-08-14T16:01:52.829Z,30.87
2022-08-14T16:04:57.162Z,30.91
2022-08-14T16:08:27.391Z,30.60
2022-08-14T16:11:34.152Z,30.48
2022-08-14T16:14:45.444Z,30.49
2022-08-14T16:17:52.311Z,30.54
2022-08-14T16:21:00.282Z,30.47
2022-08-14T16:24:05.862Z,30.59
2022-08-14T16:27:12.720Z,30.57
2022-08-14T16:30:27.950Z,30.56
2022-08-14T16:33:58.784Z,30.57
2022-08-14T16:37:03.697Z,30.55
2022-08-14T16:40:14.027Z,30.47
2022-08-14T16:43:26.803Z,30.45
2022-08-14T16:46:44.937Z,30.34
2022-08-14T16:50:03.910Z,30.22
2022-08-14T16:53:11.178Z,30.21
2022-08-14T16:56:23.803Z,29.97
2022-08-14T16:59:51.916Z,29.88
2022-08-14T17:03:04.474Z,29.65
2022-08-14T17:06:33.263Z,29.37
2022-08-14T17:09:54.724Z,29.11
2022-08-14T17:13:27.139Z,28.84
2022-08-14T17:16:59.664Z,28.56
2022-08-14T17:20:53.682Z,28.60
2022-08-14T17:23:35.380Z,28.47
2022-08-14T17:26:48.683Z,28.38
2022-08-14T17:30:02.581Z,28.17
2022-08-14T17:33:23.583Z,28.09
2022-08-14T17:36:29.822Z,28.05
2022-08-14T17:39:39.999Z,27.94
2022-08-14T17:42:51.191Z,27.96
2022-08-14T17:45:56.934Z,27.87
2022-08-14T17:49:15.410Z,27.83
2022-08-14T17:52:36.069Z,27.76
2022-08-14T17:56:03.477Z,27.80
2022-08-14T17:59:09.925Z,27.75
2022-08-14T18:02:23.209Z,27.67
2022-08-14T18:06:09.897Z,27.59
2022-08-14T18:09:08.430Z,27.46
2022-08-14T18:12:36.473Z,27.36
2022-08-14T18:15:44.886Z,27.35
2022-08-14T18:18:57.205Z,27.35
2022-08-14T18:22:31.491Z,27.25
2022-08-14T18:25:36.102Z,27.22
2022-08-14T18:28:51.192Z,27.23
2022-08-14T18:31:58.333Z,27.17
2022-08-14T18:35:13.314Z,27.12
2022-08-14T18:38:43.010Z,27.11
2022-08-14T18:42:23.578Z,27.06
2022-08-14T18:45:34.100Z,27.02
2022-08-14T18:49:14.215Z,26.99
2022-08-14T18:52:43.380Z,26.91
2022-08-14T18:56:01.851Z,26.90
2022-08-14T18:59:29.702Z,26.99
2022-08-14T19:02:43.504Z,26.93
2022-08-14T19:05:48.863Z,26.90
2022-08-14T19:08:54.546Z,26.85
2022-08-14T19:12:01.553Z,26.84
2022-08-14T19:15:10.340Z,26.79
2022-08-14T19:18:28.992Z,26.77
2022-08-14T19:21:40.950Z,26.79
2022-08-14T19:24:50.241Z,26.79
2022-08-14T19:28:32.007Z,26.70
2022-08-14T19:31:46.471Z,26.68
2022-08-14T19:35:02.596Z,26.67
2022-08-14T19:38:53.990Z,26.66
2022-08-14T19:42:00.106Z,26.61
2022-08-14T19:45:14.412Z,26.61
2022-08-14T19:48:20.460Z,26.48
2022-08-14T19:51:32.802Z,26.39
2022-08-14T19:54:41.930Z,26.36
2022-08-14T19:57:58.595Z,26.28
2022-08-14T20:01:08.742Z,26.26
2022-08-14T20:04:47.268Z,26.16
2022-08-14T20:08:00.340Z,26.15
2022-08-14T20:12:00.610Z,26.20
2022-08-14T20:15:15.523Z,26.16
2022-08-14T20:18:49.182Z,26.03
2022-08-14T20:22:00.800Z,26.02
2022-08-14T20:25:24.092Z,26.02
2022-08-14T20:28:35.629Z,25.99
2022-08-14T20:31:41.493Z,25.97
2022-08-14T20:34:51.390Z,25.96
2022-08-14T20:38:28.697Z,25.98
2022-08-14T20:41:30.154Z,25.90
2022-08-14T20:45:03.985Z,25.74
2022-08-14T20:48:10.886Z,25.69
2022-08-14T20:51:25.135Z,25.67
2022-08-14T20:54:34.475Z,25.70
2022-08-14T20:57:46.631Z,25.65
2022-08-14T21:01:19.158Z,25.71
2022-08-14T21:04:30.278Z,25.75
2022-08-14T21:07:39.482Z,25.68
2022-08-14T21:10:48.011Z,25.75
2022-08-14T21:14:20.141Z,25.80
2022-08-14T21:17:21.872Z,25.84
2022-08-14T21:20:29.272Z,25.80
2022-08-14T21:23:54.822Z,25.61
2022-08-14T21:27:12.837Z,25.44
2022-08-14T21:30:51.399Z,25.48
2022-08-14T21:33:56.423Z,25.39
2022-08-14T21:37:09.789Z,25.23
2022-08-14T21:40:42.507Z,25.19
2022-08-14T21:43:45.689Z,25.36
2022-08-14T21:46:55.563Z,25.29
2022-08-14T21:50:05.285Z,25.12
2022-08-14T21:53:33.892Z,25.17
2022-08-14T21:56:57.646Z,25.11
2022-08-14T22:00:31.563Z,25.19
2022-08-14T22:03:45.110Z,25.06
2022-08-14T22:07:00.590Z,25.10
2022-08-14T22:10:08.600Z,24.85
2022-08-14T22:13:18.420Z,24.91
2022-08-14T22:16:59.868Z,24.91
2022-08-14T22:19:54.712Z,24.73
2022-08-14T22:23:05.407Z,24.74
2022-08-14T22:26:12.435Z,24.59
2022-08-14T22:29:28.018Z,24.55
2022-08-14T22:32:35.273Z,24.51
2022-08-14T22:36:01.257Z,24.60
2022-08-14T22:39:10.838Z,24.40
2022-08-14T22:42:21.108Z,24.40
2022-08-14T22:45:36.236Z,24.37
2022-08-14T22:48:45.729Z,24.31
2022-08-14T22:51:53.331Z,24.31
2022-08-14T22:54:58.875Z,24.25
2022-08-14T22:58:04.868Z,24.28
2022-08-14T23:01:22.756Z,24.19
2022-08-14T23:04:35.308Z,24.10
2022-08-14T23:08:59.613Z,24.09
2022-08-14T23:11:22.344Z,23.61
2022-08-14T23:14:29.524Z,23.58
2022-08-14T23:17:40.284Z,23.76
2022-08-14T23:20:46.157Z,23.73
2022-08-14T23:23:54.858Z,23.42
2022-08-14T23:27:00.942Z,23.60
2022-08-14T23:30:31.906Z,23.16
2022-08-14T23:33:46.339Z,23.34
2022-08-14T23:37:03.713Z,23.25
2022-08-14T23:40:26.465Z,23.17
2022-08-14T23:43:35.637Z,23.32
2022-08-14T23:46:44.178Z,23.32
2022-08-14T23:50:00.521Z,23.39
2022-08-14T23:53:47.450Z,23.09
2022-08-14T23:57:02.418Z,23.03
